Terminal Aerodrome Forecast
Issued by NWS

Home | Current Version | Previous Version | Text Only | Print | Product List | Glossary On
Versions: 1 2 3 4 5 6 7 8 9 10 11 12 13 14 15 16 17 18 19 20 21 22 23 24 25 26
000
FTUS44 KHGX 220520
TAFIAH
TAF
KIAH 220520Z 2206/2312 17003KT P6SM FEW030 SCT250
     FM221400 15004KT P6SM SCT025
     FM221800 15004KT P6SM SCT045 SCT250
     FM230000 16008KT P6SM FEW050 SCT250
     FM230500 14005KT P6SM SKC
      TEMPO 2309/2312 BKN025=

USA.gov is the U.S. government's official web portal to all federal, state and local government web resources and services.